Time;durP1;ratioP1;P1;durP2;ratioP2;P2;SDS_P1;SDS_P2;PMS_P1;PMS_P2;Temp;Humidity;BMP_temperature;BMP_pressure;BME280_temperature;BME280_humidity;BME280_pressure;Samples;Min_cycle;Max_cycle;Signal;HPM_P1;HPM_P2
2021/12/25 00:01:26;;;;;;;38.87;14.57;;;;;;;;;;5049569;28;20672;-80
2021/12/25 00:03:54;;;;;;;28.90;13.20;;;;;;;;;;5047054;28;20199;-82
2021/12/25 00:06:22;;;;;;;21.17;8.90;;;;;;;;;;5051981;28;20199;-82
2021/12/25 00:08:51;;;;;;;24.70;10.00;;;;;;;;;;5044311;28;20621;-81
2021/12/25 00:11:19;;;;;;;26.87;10.67;;;;;;;;;;5049354;28;20309;-82
2021/12/25 00:13:47;;;;;;;28.17;12.40;;;;;;;;;;5047324;28;20265;-82
2021/12/25 00:16:15;;;;;;;23.57;9.97;;;;;;;;;;5044664;28;20287;-82
2021/12/25 00:18:42;;;;;;;24.93;10.43;;;;;;;;;;5047798;28;20246;-82
2021/12/25 00:21:11;;;;;;;26.40;11.10;;;;;;;;;;5043628;28;20235;-82
2021/12/25 00:23:39;;;;;;;29.40;12.70;;;;;;;;;;5043310;28;20212;-81
2021/12/25 00:26:12;;;;;;;31.17;11.57;;;;;;;;;;5047228;28;20242;-82
2021/12/25 00:28:58;;;;;;;25.53;10.83;;;;;;;;;;5043722;28;20258;-83
2021/12/25 00:31:42;;;;;;;26.17;9.43;;;;;;;;;;5038277;28;20220;-83
2021/12/25 00:34:10;;;;;;;21.83;9.70;;;;;;;;;;5033347;28;20306;-81
2021/12/25 00:36:38;;;;;;;19.20;9.57;;;;;;;;;;5034123;28;20234;-81
2021/12/25 00:39:05;;;;;;;21.10;9.50;;;;;;;;;;5043988;28;20349;-82
2021/12/25 00:41:32;;;;;;;18.97;8.93;;;;;;;;;;5044832;28;20207;-81
2021/12/25 00:44:01;;;;;;;26.37;9.40;;;;;;;;;;5042798;28;20235;-83
2021/12/25 00:46:28;;;;;;;24.17;9.27;;;;;;;;;;5042114;28;20203;-82
2021/12/25 00:48:55;;;;;;;26.30;8.87;;;;;;;;;;5036859;28;20694;-81
2021/12/25 00:51:22;;;;;;;21.23;9.13;;;;;;;;;;5042302;28;20667;-81
2021/12/25 00:53:50;;;;;;;19.30;8.37;;;;;;;;;;5041293;28;20261;-81
2021/12/25 00:56:17;;;;;;;24.70;10.33;;;;;;;;;;5041741;28;20269;-81
2021/12/25 00:58:44;;;;;;;29.03;10.97;;;;;;;;;;5038264;28;20231;-81
2021/12/25 01:01:13;;;;;;;28.57;12.00;;;;;;;;;;5044714;28;20200;-81
2021/12/25 01:03:40;;;;;;;26.47;10.60;;;;;;;;;;5041613;28;20550;-81
2021/12/25 01:06:07;;;;;;;26.63;10.77;;;;;;;;;;5039820;28;20576;-83
2021/12/25 01:08:35;;;;;;;24.63;10.80;;;;;;;;;;5044652;28;20305;-81
2021/12/25 01:11:02;;;;;;;26.77;10.43;;;;;;;;;;5044443;28;20641;-83
2021/12/25 01:13:33;;;;;;;27.33;11.70;;;;;;;;;;5042212;28;20203;-82
2021/12/25 01:16:15;;;;;;;27.17;11.07;;;;;;;;;;5040308;28;20235;-82
2021/12/25 01:27:11;;;;;;;30.27;11.87;;;;;;;;;;5040699;28;20219;-85
2021/12/25 01:29:45;;;;;;;26.47;11.43;;;;;;;;;;5044420;28;20275;-84
2021/12/25 01:32:39;;;;;;;30.77;12.07;;;;;;;;;;5043953;28;20254;-83
2021/12/25 01:38:03;;;;;;;25.07;11.23;;;;;;;;;;5033905;28;20230;-82
2021/12/25 01:40:50;;;;;;;27.97;11.00;;;;;;;;;;5042984;28;20687;-83
2021/12/25 01:48:47;;;;;;;11.60;5.83;;;;;;;;;;5043904;28;20234;-82
2021/12/25 01:51:16;;;;;;;8.67;3.83;;;;;;;;;;5041798;28;20199;-83
2021/12/25 01:53:43;;;;;;;7.67;3.40;;;;;;;;;;5057659;28;20250;-80
2021/12/25 01:56:10;;;;;;;6.40;3.50;;;;;;;;;;5063311;28;20199;-81
2021/12/25 01:58:38;;;;;;;4.60;2.43;;;;;;;;;;5056920;28;20226;-81
2021/12/25 02:01:06;;;;;;;4.13;2.40;;;;;;;;;;5063829;28;20209;-80
2021/12/25 02:03:34;;;;;;;4.50;2.20;;;;;;;;;;5060891;28;20196;-80
2021/12/25 02:06:02;;;;;;;8.10;2.40;;;;;;;;;;5064722;28;20233;-80
2021/12/25 02:08:30;;;;;;;4.53;2.03;;;;;;;;;;5060207;28;20247;-81
2021/12/25 02:10:58;;;;;;;3.07;1.97;;;;;;;;;;5064194;28;20222;-82
2021/12/25 02:13:25;;;;;;;4.33;2.00;;;;;;;;;;5059837;28;20216;-82
2021/12/25 02:15:54;;;;;;;3.23;1.93;;;;;;;;;;5063362;28;20190;-82
2021/12/25 02:18:26;;;;;;;4.13;1.90;;;;;;;;;;5062886;28;20236;-83
2021/12/25 02:21:08;;;;;;;3.40;1.80;;;;;;;;;;5059460;28;20209;-83
2021/12/25 02:23:36;;;;;;;2.60;1.50;;;;;;;;;;5060720;28;20191;-83
2021/12/25 02:26:03;;;;;;;2.17;1.30;;;;;;;;;;5057596;28;20243;-84
2021/12/25 02:28:31;;;;;;;3.53;1.53;;;;;;;;;;5049686;22;20254;-81
2021/12/25 02:31:00;;;;;;;1.40;1.10;;;;;;;;;;5048022;28;20207;-81
2021/12/25 02:33:28;;;;;;;2.63;1.50;;;;;;;;;;5049075;28;20215;-82
2021/12/25 02:35:56;;;;;;;2.63;1.27;;;;;;;;;;5051396;28;20275;-82
2021/12/25 02:38:24;;;;;;;4.20;1.30;;;;;;;;;;5038618;28;20244;-80
2021/12/25 02:40:51;;;;;;;2.43;1.50;;;;;;;;;;5037336;28;20311;-81
2021/12/25 02:43:18;;;;;;;2.53;1.50;;;;;;;;;;5037329;28;20327;-81
2021/12/25 02:45:46;;;;;;;2.57;1.60;;;;;;;;;;5030031;28;20219;-80
2021/12/25 02:48:15;;;;;;;2.00;1.40;;;;;;;;;;5031538;28;20269;-82
2021/12/25 02:50:43;;;;;;;2.27;1.50;;;;;;;;;;5027747;28;20258;-82
2021/12/25 02:53:12;;;;;;;1.80;1.30;;;;;;;;;;5032779;28;20199;-81
2021/12/25 02:55:40;;;;;;;2.10;1.40;;;;;;;;;;5038665;28;20263;-81
2021/12/25 02:58:07;;;;;;;3.80;1.63;;;;;;;;;;5034585;28;20310;-83
2021/12/25 03:00:37;;;;;;;2.47;1.60;;;;;;;;;;5039060;28;20204;-81
2021/12/25 03:03:06;;;;;;;2.37;1.60;;;;;;;;;;5038534;28;20822;-82
2021/12/25 03:05:33;;;;;;;2.10;1.43;;;;;;;;;;5040943;28;20278;-81
2021/12/25 03:08:00;;;;;;;2.10;1.57;;;;;;;;;;5050076;28;20544;-82
2021/12/25 03:10:31;;;;;;;4.13;1.50;;;;;;;;;;5039849;28;20271;-83
2021/12/25 03:13:17;;;;;;;2.30;1.67;;;;;;;;;;5041014;28;20218;-81
2021/12/25 03:15:47;;;;;;;4.47;1.60;;;;;;;;;;5034350;28;20204;-81
2021/12/25 03:18:14;;;;;;;3.63;1.43;;;;;;;;;;5036930;28;20239;-81
2021/12/25 03:20:44;;;;;;;2.67;1.50;;;;;;;;;;5038098;28;20207;-81
2021/12/25 03:23:12;;;;;;;3.77;1.37;;;;;;;;;;5033351;28;20584;-82
2021/12/25 03:25:41;;;;;;;2.50;1.60;;;;;;;;;;5036127;28;20238;-80
2021/12/25 03:28:08;;;;;;;2.77;1.53;;;;;;;;;;5037380;28;20265;-82
2021/12/25 03:30:38;;;;;;;3.93;2.13;;;;;;;;;;5036597;28;20210;-81
2021/12/25 03:33:05;;;;;;;2.50;1.63;;;;;;;;;;5032637;28;20196;-80
2021/12/25 03:35:34;;;;;;;2.70;1.70;;;;;;;;;;5031884;28;20219;-82
2021/12/25 03:38:01;;;;;;;2.37;1.43;;;;;;;;;;5033549;28;20313;-81
2021/12/25 03:40:29;;;;;;;3.43;1.70;;;;;;;;;;5037373;28;20218;-82
2021/12/25 03:42:57;;;;;;;4.20;1.83;;;;;;;;;;5032358;28;20245;-81
2021/12/25 03:45:27;;;;;;;4.30;1.90;;;;;;;;;;5040455;28;20210;-81
2021/12/25 03:48:05;;;;;;;5.30;2.40;;;;;;;;;;5032721;28;20218;-81
2021/12/25 03:53:36;;;;;;;4.40;2.20;;;;;;;;;;5030781;28;20211;-82
2021/12/25 03:58:50;;;;;;;3.23;2.00;;;;;;;;;;5040057;28;20230;-82
2021/12/25 04:01:29;;;;;;;4.07;2.50;;;;;;;;;;5038401;28;20356;-83
2021/12/25 04:04:11;;;;;;;4.07;2.67;;;;;;;;;;5031279;28;20307;-83
2021/12/25 04:06:44;;;;;;;6.30;3.07;;;;;;;;;;5034475;28;20210;-81
2021/12/25 04:09:21;;;;;;;3.57;2.50;;;;;;;;;;5029887;28;20230;-80
2021/12/25 04:11:49;;;;;;;4.60;2.67;;;;;;;;;;5036998;28;20211;-81
2021/12/25 04:14:17;;;;;;;5.43;2.50;;;;;;;;;;5039328;28;20258;-81
2021/12/25 04:16:44;;;;;;;4.50;2.90;;;;;;;;;;5034899;28;20231;-80
2021/12/25 04:19:12;;;;;;;4.60;2.53;;;;;;;;;;5036260;28;20224;-81
2021/12/25 04:21:47;;;;;;;3.87;2.60;;;;;;;;;;5033767;28;20326;-80
2021/12/25 04:24:14;;;;;;;5.10;2.77;;;;;;;;;;5033014;28;20269;-81
2021/12/25 04:26:43;;;;;;;4.27;2.97;;;;;;;;;;5037565;28;20265;-82
2021/12/25 04:29:31;;;;;;;5.60;3.07;;;;;;;;;;5035053;28;20242;-80
2021/12/25 04:32:16;;;;;;;5.20;3.40;;;;;;;;;;5031106;28;20196;-81
2021/12/25 05:02:19;;;;;;;7.00;4.13;;;;;;;;;;5026747;28;20262;-80
2021/12/25 05:04:52;;;;;;;6.63;4.20;;;;;;;;;;5027565;28;20203;-80
2021/12/25 05:07:19;;;;;;;7.10;4.47;;;;;;;;;;5032137;28;20220;-80
2021/12/25 05:09:46;;;;;;;6.40;3.97;;;;;;;;;;5031021;28;20563;-80
2021/12/25 05:12:13;;;;;;;8.33;4.73;;;;;;;;;;5029179;28;20215;-80
2021/12/25 05:14:41;;;;;;;6.50;3.87;;;;;;;;;;5030279;28;20233;-80
2021/12/25 05:17:10;;;;;;;7.80;4.30;;;;;;;;;;5029185;28;20204;-80
2021/12/25 05:19:38;;;;;;;6.37;4.03;;;;;;;;;;5028087;28;20210;-80
2021/12/25 05:22:07;;;;;;;7.67;4.30;;;;;;;;;;5031806;28;20295;-80
2021/12/25 05:24:35;;;;;;;5.87;3.87;;;;;;;;;;5026334;28;20271;-80
2021/12/25 05:27:02;;;;;;;6.23;3.77;;;;;;;;;;5027884;28;20233;-81
2021/12/25 05:29:33;;;;;;;5.93;3.90;;;;;;;;;;5030949;28;20219;-80
2021/12/25 05:32:00;;;;;;;7.70;4.20;;;;;;;;;;5028481;28;20207;-81
2021/12/25 05:34:27;;;;;;;6.40;3.57;;;;;;;;;;5029800;28;20755;-81
2021/12/25 05:36:55;;;;;;;9.00;4.30;;;;;;;;;;5028874;28;20199;-81
2021/12/25 05:39:23;;;;;;;7.00;4.03;;;;;;;;;;5025135;28;20219;-82
2021/12/25 05:41:51;;;;;;;6.30;3.67;;;;;;;;;;5034092;28;20281;-80
2021/12/25 05:44:18;;;;;;;6.57;4.10;;;;;;;;;;5035292;28;20202;-80
2021/12/25 05:46:45;;;;;;;5.77;3.83;;;;;;;;;;5035059;28;20225;-79
2021/12/25 05:49:12;;;;;;;6.93;4.27;;;;;;;;;;5031061;28;20698;-79
2021/12/25 05:51:39;;;;;;;8.53;4.37;;;;;;;;;;5035945;28;20307;-79
2021/12/25 05:54:07;;;;;;;6.83;3.90;;;;;;;;;;5033231;28;20214;-80
2021/12/25 05:56:35;;;;;;;7.93;4.60;;;;;;;;;;5035249;28;20199;-79
2021/12/25 05:59:03;;;;;;;8.50;4.07;;;;;;;;;;5033812;28;20294;-80
2021/12/25 06:01:30;;;;;;;7.73;4.67;;;;;;;;;;5031212;28;20226;-81
2021/12/25 06:03:57;;;;;;;10.33;4.03;;;;;;;;;;5031117;28;20214;-80
2021/12/25 06:06:24;;;;;;;7.50;4.27;;;;;;;;;;5033293;28;20301;-80
2021/12/25 06:08:52;;;;;;;9.00;4.90;;;;;;;;;;5033595;28;20215;-80
2021/12/25 06:11:20;;;;;;;9.47;4.73;;;;;;;;;;5034298;28;20614;-81
2021/12/25 06:13:57;;;;;;;8.53;4.33;;;;;;;;;;5029134;28;20216;-82
2021/12/25 06:16:24;;;;;;;10.60;4.67;;;;;;;;;;5036781;28;20203;-79
2021/12/25 06:18:51;;;;;;;8.27;4.60;;;;;;;;;;5031461;28;20314;-81
2021/12/25 06:21:19;;;;;;;7.37;4.17;;;;;;;;;;5037797;28;20203;-80
2021/12/25 06:23:46;;;;;;;8.73;4.70;;;;;;;;;;5031204;28;20294;-80
2021/12/25 06:26:13;;;;;;;8.03;4.20;;;;;;;;;;5033359;28;20282;-80
2021/12/25 06:28:40;;;;;;;8.23;5.00;;;;;;;;;;5034408;28;20250;-80
2021/12/25 06:31:09;;;;;;;7.57;4.30;;;;;;;;;;5032764;28;20298;-80
2021/12/25 06:33:36;;;;;;;6.67;3.93;;;;;;;;;;5031466;28;20208;-81
2021/12/25 06:36:03;;;;;;;8.60;4.40;;;;;;;;;;5037639;28;20199;-80
2021/12/25 06:38:30;;;;;;;6.70;3.73;;;;;;;;;;5034942;28;20318;-81
2021/12/25 06:40:58;;;;;;;9.60;4.03;;;;;;;;;;5038091;28;20714;-80
2021/12/25 06:43:25;;;;;;;7.33;3.67;;;;;;;;;;5030488;28;20216;-80
2021/12/25 06:45:52;;;;;;;6.20;3.67;;;;;;;;;;5034879;28;20698;-80
2021/12/25 06:48:22;;;;;;;5.40;3.10;;;;;;;;;;5032586;28;20212;-79
2021/12/25 06:50:49;;;;;;;5.20;3.10;;;;;;;;;;5033300;28;20200;-80
2021/12/25 06:53:16;;;;;;;5.63;3.00;;;;;;;;;;5033282;28;20271;-80
2021/12/25 06:55:43;;;;;;;6.27;3.30;;;;;;;;;;5032509;28;20260;-81
2021/12/25 06:58:11;;;;;;;5.67;3.17;;;;;;;;;;5033380;28;20611;-80
2021/12/25 07:00:38;;;;;;;3.87;2.30;;;;;;;;;;5035498;28;20204;-80
2021/12/25 07:03:05;;;;;;;3.70;2.00;;;;;;;;;;5036295;28;20906;-79
2021/12/25 07:05:34;;;;;;;4.70;2.40;;;;;;;;;;5027500;28;20220;-81
2021/12/25 07:08:01;;;;;;;3.90;2.20;;;;;;;;;;5031725;28;20255;-80
2021/12/25 07:10:28;;;;;;;4.17;2.30;;;;;;;;;;5034175;28;20204;-81
2021/12/25 07:12:55;;;;;;;3.73;2.10;;;;;;;;;;5031600;28;20680;-81
2021/12/25 07:15:23;;;;;;;3.53;2.10;;;;;;;;;;5036310;28;20230;-80
2021/12/25 07:17:50;;;;;;;3.17;2.10;;;;;;;;;;5030546;28;20259;-81
2021/12/25 07:20:17;;;;;;;2.97;1.73;;;;;;;;;;5034016;28;20240;-80
2021/12/25 07:22:47;;;;;;;3.97;2.43;;;;;;;;;;5029991;28;20659;-79
2021/12/25 07:25:14;;;;;;;4.30;2.70;;;;;;;;;;5025843;28;20197;-80
2021/12/25 07:27:41;;;;;;;6.77;3.00;;;;;;;;;;5031042;28;20988;-79
2021/12/25 07:30:09;;;;;;;5.87;3.07;;;;;;;;;;5031340;28;20211;-80
2021/12/25 07:32:37;;;;;;;5.60;3.23;;;;;;;;;;5034646;28;20706;-80
2021/12/25 07:35:05;;;;;;;5.20;2.67;;;;;;;;;;5033146;28;20486;-81
2021/12/25 07:37:33;;;;;;;4.77;2.63;;;;;;;;;;5037118;28;20221;-80
2021/12/25 07:40:03;;;;;;;5.60;3.33;;;;;;;;;;5035270;28;20610;-79
2021/12/25 07:42:30;;;;;;;3.87;2.33;;;;;;;;;;5034850;28;20277;-79
2021/12/25 07:45:03;;;;;;;6.77;2.87;;;;;;;;;;5038630;28;20290;-79
2021/12/25 07:47:31;;;;;;;9.47;3.53;;;;;;;;;;5041046;28;20227;-79
2021/12/25 07:49:59;;;;;;;7.07;3.37;;;;;;;;;;5040037;28;20257;-80
2021/12/25 07:52:26;;;;;;;3.77;2.20;;;;;;;;;;5037894;28;20200;-81
2021/12/25 07:54:53;;;;;;;4.83;2.87;;;;;;;;;;5034599;28;20204;-79
2021/12/25 07:57:22;;;;;;;6.23;3.30;;;;;;;;;;5038973;28;20216;-81
2021/12/25 07:59:49;;;;;;;5.30;2.80;;;;;;;;;;5035135;28;20655;-80
2021/12/25 08:02:17;;;;;;;5.37;2.50;;;;;;;;;;5034698;28;20303;-81
2021/12/25 08:04:44;;;;;;;5.30;2.80;;;;;;;;;;5032444;28;20295;-79
2021/12/25 08:07:11;;;;;;;3.90;2.20;;;;;;;;;;5039568;28;20335;-79
2021/12/25 08:09:38;;;;;;;3.63;2.17;;;;;;;;;;5034586;28;20200;-79
2021/12/25 08:12:06;;;;;;;3.80;2.40;;;;;;;;;;5030348;28;20203;-78
2021/12/25 08:14:34;;;;;;;6.07;2.27;;;;;;;;;;5031225;28;20196;-79
2021/12/25 08:17:02;;;;;;;4.43;2.10;;;;;;;;;;5034998;28;20202;-81
2021/12/25 08:19:30;;;;;;;3.53;2.30;;;;;;;;;;5032590;28;20220;-80
2021/12/25 08:21:57;;;;;;;4.40;2.57;;;;;;;;;;5031925;28;20208;-81
2021/12/25 08:24:24;;;;;;;5.53;2.60;;;;;;;;;;5033523;28;20204;-80
2021/12/25 08:26:51;;;;;;;5.90;2.53;;;;;;;;;;5036068;28;20219;-81
2021/12/25 08:29:19;;;;;;;5.37;2.90;;;;;;;;;;5035445;28;20310;-83
2021/12/25 08:31:47;;;;;;;6.17;3.37;;;;;;;;;;5038379;28;20286;-82
2021/12/25 08:34:14;;;;;;;7.60;4.40;;;;;;;;;;5040343;28;20211;-79
2021/12/25 08:36:42;;;;;;;5.63;3.60;;;;;;;;;;5045581;28;20207;-81
2021/12/25 08:39:09;;;;;;;6.57;3.80;;;;;;;;;;5024808;28;20354;-81
2021/12/25 08:41:38;;;;;;;5.30;3.40;;;;;;;;;;5030610;28;20216;-79
2021/12/25 08:44:09;;;;;;;8.43;4.07;;;;;;;;;;5038680;28;20246;-84
2021/12/25 08:46:45;;;;;;;11.37;4.77;;;;;;;;;;5041721;28;20192;-82
2021/12/25 08:49:16;;;;;;;7.07;3.80;;;;;;;;;;5032938;28;20301;-82
2021/12/25 08:51:43;;;;;;;7.87;2.73;;;;;;;;;;5030118;28;20203;-83
2021/12/25 08:54:11;;;;;;;7.93;3.60;;;;;;;;;;5029399;28;20207;-83
2021/12/25 08:56:38;;;;;;;8.40;3.73;;;;;;;;;;5029451;28;20212;-82
2021/12/25 08:59:06;;;;;;;5.20;3.00;;;;;;;;;;5030137;28;20260;-81
2021/12/25 09:01:33;;;;;;;5.03;2.67;;;;;;;;;;5029511;28;20199;-83
2021/12/25 09:04:00;;;;;;;7.63;2.63;;;;;;;;;;5035094;28;20233;-81
2021/12/25 09:06:29;;;;;;;5.57;2.60;;;;;;;;;;5031550;28;20222;-81
2021/12/25 09:08:56;;;;;;;4.13;2.60;;;;;;;;;;5028926;28;20502;-81
2021/12/25 09:11:24;;;;;;;5.33;3.00;;;;;;;;;;5035483;28;20290;-83
2021/12/25 09:13:51;;;;;;;7.60;3.17;;;;;;;;;;5034447;28;20212;-84
2021/12/25 09:16:19;;;;;;;9.90;3.60;;;;;;;;;;5030353;28;20220;-82
2021/12/25 09:18:46;;;;;;;5.90;3.40;;;;;;;;;;5036202;28;20239;-84
2021/12/25 09:21:14;;;;;;;6.10;2.80;;;;;;;;;;5033437;28;20200;-81
2021/12/25 09:23:43;;;;;;;4.67;3.03;;;;;;;;;;5033442;28;20623;-81
2021/12/25 09:26:10;;;;;;;5.33;2.93;;;;;;;;;;5026513;28;20199;-84
2021/12/25 09:28:38;;;;;;;6.77;3.00;;;;;;;;;;5025494;28;20246;-82
2021/12/25 09:31:05;;;;;;;10.53;4.40;;;;;;;;;;5028611;28;20212;-82
2021/12/25 09:33:33;;;;;;;6.07;4.03;;;;;;;;;;5031775;28;20220;-81
2021/12/25 09:36:02;;;;;;;7.20;3.70;;;;;;;;;;5034763;28;20211;-81
2021/12/25 09:38:29;;;;;;;3.93;2.43;;;;;;;;;;5035284;28;20335;-83
2021/12/25 09:40:58;;;;;;;3.73;2.67;;;;;;;;;;5034385;28;20468;-83
2021/12/25 09:43:26;;;;;;;4.30;2.43;;;;;;;;;;5034092;28;20211;-84
2021/12/25 09:45:53;;;;;;;3.77;2.27;;;;;;;;;;5030957;28;20574;-83
2021/12/25 09:48:20;;;;;;;5.00;2.50;;;;;;;;;;5031184;28;20234;-84
2021/12/25 09:50:48;;;;;;;4.13;2.60;;;;;;;;;;5032500;28;20684;-82
2021/12/25 09:53:16;;;;;;;6.90;2.50;;;;;;;;;;5031740;28;20204;-84
2021/12/25 09:55:43;;;;;;;5.17;2.50;;;;;;;;;;5031462;28;20338;-82
2021/12/25 09:58:12;;;;;;;8.17;3.07;;;;;;;;;;5037104;28;20251;-82
2021/12/25 10:00:42;;;;;;;4.50;2.73;;;;;;;;;;5030381;28;20224;-82
2021/12/25 10:03:09;;;;;;;6.67;2.73;;;;;;;;;;5037259;28;20211;-82
2021/12/25 10:05:38;;;;;;;3.67;2.07;;;;;;;;;;5042747;28;20206;-82
2021/12/25 10:08:07;;;;;;;3.97;2.30;;;;;;;;;;5038118;28;20250;-81
2021/12/25 10:10:40;;;;;;;4.23;2.10;;;;;;;;;;5043516;28;20568;-81
2021/12/25 10:13:17;;;;;;;3.83;2.60;;;;;;;;;;5035411;28;20199;-82
2021/12/25 10:15:46;;;;;;;7.60;2.30;;;;;;;;;;5041664;28;20290;-81
2021/12/25 10:18:13;;;;;;;11.30;3.10;;;;;;;;;;5038758;28;20740;-81
2021/12/25 10:20:41;;;;;;;6.53;3.27;;;;;;;;;;5036069;28;20266;-82
2021/12/25 10:23:11;;;;;;;5.70;2.60;;;;;;;;;;5034189;28;20229;-82
2021/12/25 10:25:44;;;;;;;3.93;2.20;;;;;;;;;;5040882;28;20208;-83
2021/12/25 10:28:11;;;;;;;9.20;4.30;;;;;;;;;;5041011;28;20729;-81
2021/12/25 10:30:47;;;;;;;8.27;3.57;;;;;;;;;;5037726;28;20264;-81
2021/12/25 10:33:25;;;;;;;5.40;2.90;;;;;;;;;;5037708;28;20202;-82
2021/12/25 10:35:52;;;;;;;4.20;2.00;;;;;;;;;;5043330;28;20224;-81
2021/12/25 10:38:22;;;;;;;7.80;2.43;;;;;;;;;;5030191;28;20417;-81
2021/12/25 10:40:49;;;;;;;8.70;2.93;;;;;;;;;;5029338;28;20243;-81
2021/12/25 10:43:20;;;;;;;5.97;2.83;;;;;;;;;;5040301;28;20253;-82
2021/12/25 10:46:01;;;;;;;7.10;2.50;;;;;;;;;;5042077;28;20207;-81
2021/12/25 10:48:29;;;;;;;3.30;2.13;;;;;;;;;;5039194;28;20224;-83
2021/12/25 10:50:56;;;;;;;3.93;2.00;;;;;;;;;;5038137;28;20196;-82
2021/12/25 10:53:25;;;;;;;7.97;2.07;;;;;;;;;;5039257;28;20896;-83
2021/12/25 10:55:56;;;;;;;4.50;2.43;;;;;;;;;;5043072;28;20231;-81
2021/12/25 10:58:24;;;;;;;6.03;2.63;;;;;;;;;;5041230;28;20306;-83
2021/12/25 11:00:54;;;;;;;5.80;1.83;;;;;;;;;;5042254;28;20303;-83
2021/12/25 11:03:29;;;;;;;3.03;1.50;;;;;;;;;;5043001;28;20192;-83
2021/12/25 11:06:01;;;;;;;2.27;1.50;;;;;;;;;;5046466;28;20662;-83
2021/12/25 11:08:29;;;;;;;4.33;2.17;;;;;;;;;;5047364;28;20590;-82
2021/12/25 11:10:57;;;;;;;3.73;1.87;;;;;;;;;;5047052;28;20200;-83
2021/12/25 11:13:25;;;;;;;6.23;1.67;;;;;;;;;;5044702;28;20271;-84
2021/12/25 11:16:00;;;;;;;3.10;1.40;;;;;;;;;;5041583;28;20293;-83
2021/12/25 11:18:29;;;;;;;2.30;1.03;;;;;;;;;;5049361;28;20253;-81
2021/12/25 11:20:59;;;;;;;4.40;1.47;;;;;;;;;;5045821;28;20251;-83
2021/12/25 11:23:28;;;;;;;3.20;1.80;;;;;;;;;;5040542;28;20295;-84
2021/12/25 11:25:55;;;;;;;4.17;1.80;;;;;;;;;;5036816;28;20292;-82
2021/12/25 11:28:23;;;;;;;7.03;2.40;;;;;;;;;;5036678;28;20357;-83
2021/12/25 11:30:52;;;;;;;4.37;2.00;;;;;;;;;;5033991;28;20203;-83
2021/12/25 11:33:19;;;;;;;4.03;2.03;;;;;;;;;;5034763;28;20212;-84
2021/12/25 11:35:48;;;;;;;4.30;2.07;;;;;;;;;;5038520;28;20217;-82
2021/12/25 11:38:16;;;;;;;5.87;2.13;;;;;;;;;;5045062;28;20224;-82
2021/12/25 11:40:49;;;;;;;2.60;1.60;;;;;;;;;;5036324;28;20242;-83
2021/12/25 11:43:17;;;;;;;2.97;1.67;;;;;;;;;;5034996;28;20215;-84
2021/12/25 11:45:50;;;;;;;3.50;1.50;;;;;;;;;;5032966;28;20227;-84
2021/12/25 11:48:19;;;;;;;4.80;1.73;;;;;;;;;;5024482;28;20220;-82
2021/12/25 11:50:47;;;;;;;3.50;2.10;;;;;;;;;;5033014;28;20214;-82
2021/12/25 11:53:21;;;;;;;7.87;1.90;;;;;;;;;;5036520;28;20451;-81
2021/12/25 11:58:45;;;;;;;3.90;1.70;;;;;;;;;;5038121;28;20466;-82
2021/12/25 12:01:23;;;;;;;5.07;2.10;;;;;;;;;;5025132;28;20282;-80
2021/12/25 12:03:54;;;;;;;2.17;1.33;;;;;;;;;;5025155;28;20903;-81
2021/12/25 12:06:22;;;;;;;3.80;1.90;;;;;;;;;;5020244;28;20223;-82
2021/12/25 12:09:07;;;;;;;7.27;2.00;;;;;;;;;;5023448;28;20617;-82
2021/12/25 12:11:35;;;;;;;2.43;1.67;;;;;;;;;;5022934;28;20248;-82
2021/12/25 12:14:18;;;;;;;2.73;1.67;;;;;;;;;;5020575;28;20901;-81
2021/12/25 12:16:48;;;;;;;2.47;1.70;;;;;;;;;;5019434;28;20462;-82
2021/12/25 12:19:42;;;;;;;4.37;2.07;;;;;;;;;;5025195;28;20505;-82
2021/12/25 12:22:32;;;;;;;3.70;2.30;;;;;;;;;;5001519;28;20606;-82
2021/12/25 12:25:18;;;;;;;3.23;2.20;;;;;;;;;;5015823;28;21079;-82
2021/12/25 12:27:49;;;;;;;2.50;1.53;;;;;;;;;;5022533;28;20240;-81
2021/12/25 12:30:40;;;;;;;4.53;1.60;;;;;;;;;;5029326;28;20458;-80
2021/12/25 12:33:22;;;;;;;4.10;2.13;;;;;;;;;;5020370;28;20235;-82
2021/12/25 12:35:50;;;;;;;6.20;2.50;;;;;;;;;;5022050;28;20203;-81
2021/12/25 12:38:36;;;;;;;6.67;1.97;;;;;;;;;;5022534;28;20783;-82
2021/12/25 12:41:27;;;;;;;4.40;2.43;;;;;;;;;;5019979;28;20486;-81
2021/12/25 12:44:00;;;;;;;3.53;1.90;;;;;;;;;;5034373;28;20461;-82
2021/12/25 12:46:42;;;;;;;2.77;1.80;;;;;;;;;;5027724;28;20490;-81
2021/12/25 12:49:10;;;;;;;4.43;1.77;;;;;;;;;;5035112;28;20500;-83
2021/12/25 12:51:37;;;;;;;4.63;1.83;;;;;;;;;;5034400;28;20501;-83
2021/12/25 12:54:05;;;;;;;7.27;2.40;;;;;;;;;;5024661;28;20549;-83
2021/12/25 12:56:33;;;;;;;5.93;2.73;;;;;;;;;;5026036;28;20458;-81
2021/12/25 12:59:01;;;;;;;5.00;2.30;;;;;;;;;;5030160;28;20467;-82
2021/12/25 13:01:29;;;;;;;5.73;2.83;;;;;;;;;;5041322;28;20482;-82
2021/12/25 13:03:57;;;;;;;5.33;2.67;;;;;;;;;;5042086;28;20545;-83
2021/12/25 13:06:36;;;;;;;7.33;3.37;;;;;;;;;;5040897;28;20600;-83
2021/12/25 13:09:09;;;;;;;7.80;2.43;;;;;;;;;;5043791;28;20486;-82
2021/12/25 13:11:53;;;;;;;4.47;2.13;;;;;;;;;;5038206;28;20518;-80
2021/12/25 13:14:21;;;;;;;3.70;1.73;;;;;;;;;;5030325;28;20754;-81
2021/12/25 13:16:48;;;;;;;3.40;1.97;;;;;;;;;;5028806;28;20498;-83
2021/12/25 13:19:16;;;;;;;5.93;2.43;;;;;;;;;;5029158;28;20490;-82
2021/12/25 13:21:44;;;;;;;3.10;2.00;;;;;;;;;;5026741;28;20527;-82
2021/12/25 13:24:14;;;;;;;4.20;2.40;;;;;;;;;;5027937;28;20302;-82
2021/12/25 13:26:47;;;;;;;2.93;2.13;;;;;;;;;;5027761;28;20483;-83
2021/12/25 13:29:16;;;;;;;4.87;2.43;;;;;;;;;;5029981;28;20522;-82
2021/12/25 13:31:47;;;;;;;3.97;2.13;;;;;;;;;;5031013;28;20493;-82
2021/12/25 13:34:15;;;;;;;3.23;2.00;;;;;;;;;;5017721;28;21271;-82
2021/12/25 13:36:44;;;;;;;6.47;2.00;;;;;;;;;;5031010;28;20514;-82
2021/12/25 13:39:13;;;;;;;3.17;2.03;;;;;;;;;;5032175;28;20485;-82
2021/12/25 13:41:41;;;;;;;3.60;2.03;;;;;;;;;;5032846;28;21042;-82
2021/12/25 13:44:14;;;;;;;5.87;2.40;;;;;;;;;;5032641;28;20473;-82
2021/12/25 13:46:43;;;;;;;5.03;2.33;;;;;;;;;;5030153;28;20473;-82
2021/12/25 13:49:25;;;;;;;3.80;1.97;;;;;;;;;;5026313;28;20510;-82
2021/12/25 13:51:52;;;;;;;2.60;1.63;;;;;;;;;;5024722;28;20540;-81
2021/12/25 13:54:19;;;;;;;3.77;2.03;;;;;;;;;;5030392;28;20302;-81
2021/12/25 13:56:47;;;;;;;3.90;2.20;;;;;;;;;;5031741;28;20450;-82
2021/12/25 13:59:15;;;;;;;21.47;4.93;;;;;;;;;;5032442;28;20473;-81
2021/12/25 14:01:43;;;;;;;4.07;2.20;;;;;;;;;;5033809;28;20537;-80
2021/12/25 14:04:10;;;;;;;6.57;2.87;;;;;;;;;;5031442;28;20449;-81
2021/12/25 14:06:37;;;;;;;5.80;2.80;;;;;;;;;;5033869;28;20826;-81
2021/12/25 14:09:05;;;;;;;5.17;2.70;;;;;;;;;;5039855;28;20475;-81
2021/12/25 14:11:32;;;;;;;5.83;3.00;;;;;;;;;;5039226;28;20465;-81
2021/12/25 14:14:00;;;;;;;5.93;2.77;;;;;;;;;;5044928;28;20875;-81
2021/12/25 14:16:28;;;;;;;4.93;2.33;;;;;;;;;;5042248;28;20488;-82
2021/12/25 14:18:56;;;;;;;3.70;2.27;;;;;;;;;;5038000;28;20454;-81
2021/12/25 14:21:24;;;;;;;4.13;2.00;;;;;;;;;;5040674;28;20548;-82
2021/12/25 14:24:01;;;;;;;5.67;2.27;;;;;;;;;;5035455;28;20522;-82
2021/12/25 14:26:28;;;;;;;4.70;1.90;;;;;;;;;;5034513;28;20493;-81
2021/12/25 14:28:55;;;;;;;2.73;1.60;;;;;;;;;;5039315;28;21563;-82
2021/12/25 14:31:22;;;;;;;6.77;2.10;;;;;;;;;;5034508;28;20833;-84
2021/12/25 14:33:56;;;;;;;3.80;2.10;;;;;;;;;;5038811;28;20470;-83
2021/12/25 14:36:24;;;;;;;7.07;2.63;;;;;;;;;;5039285;28;20455;-83
2021/12/25 14:38:51;;;;;;;6.67;3.00;;;;;;;;;;5042359;28;20495;-81
2021/12/25 14:41:25;;;;;;;5.63;2.90;;;;;;;;;;5041772;28;20482;-82
2021/12/25 14:43:52;;;;;;;7.60;3.03;;;;;;;;;;5035413;28;20510;-83
2021/12/25 14:46:21;;;;;;;3.70;1.83;;;;;;;;;;5031547;28;20461;-81
2021/12/25 14:48:48;;;;;;;7.47;2.10;;;;;;;;;;5036410;28;20476;-81
2021/12/25 14:51:17;;;;;;;3.13;2.10;;;;;;;;;;5040202;28;20481;-83
2021/12/25 14:53:46;;;;;;;4.33;1.80;;;;;;;;;;5039891;28;20453;-83
2021/12/25 14:56:16;;;;;;;4.10;1.90;;;;;;;;;;5044120;28;20489;-83
2021/12/25 14:58:47;;;;;;;3.07;1.40;;;;;;;;;;5040678;28;20505;-81
2021/12/25 15:01:15;;;;;;;4.97;2.50;;;;;;;;;;5042564;28;20484;-82
2021/12/25 15:03:44;;;;;;;4.70;1.87;;;;;;;;;;5044142;28;20450;-83
2021/12/25 15:06:20;;;;;;;5.37;2.10;;;;;;;;;;5043158;28;20481;-82
2021/12/25 15:08:59;;;;;;;3.63;1.60;;;;;;;;;;5047198;28;20495;-82
2021/12/25 15:11:31;;;;;;;2.50;1.57;;;;;;;;;;5041851;28;20518;-80
2021/12/25 15:14:00;;;;;;;3.90;2.30;;;;;;;;;;5043585;28;20478;-80
2021/12/25 15:16:35;;;;;;;5.07;2.70;;;;;;;;;;5047024;28;20515;-82
2021/12/25 15:19:02;;;;;;;8.93;3.50;;;;;;;;;;5042600;28;20488;-80
2021/12/25 15:21:31;;;;;;;7.23;3.20;;;;;;;;;;5042363;28;20473;-80
2021/12/25 15:24:12;;;;;;;5.97;3.13;;;;;;;;;;5040118;28;20509;-81
2021/12/25 15:26:41;;;;;;;8.03;3.13;;;;;;;;;;5042642;28;20454;-80
2021/12/25 15:29:09;;;;;;;5.77;2.80;;;;;;;;;;5039703;28;20495;-82
2021/12/25 15:31:36;;;;;;;7.23;2.90;;;;;;;;;;5044077;28;20462;-81
2021/12/25 15:34:08;;;;;;;4.13;2.80;;;;;;;;;;5038687;28;20897;-81
2021/12/25 15:36:42;;;;;;;5.20;2.47;;;;;;;;;;5044178;28;20466;-81
2021/12/25 15:39:14;;;;;;;7.70;2.77;;;;;;;;;;5043887;28;20499;-81
2021/12/25 15:41:41;;;;;;;4.37;2.40;;;;;;;;;;5041636;28;20476;-81
2021/12/25 15:44:09;;;;;;;7.57;3.30;;;;;;;;;;5042728;28;20459;-83
2021/12/25 15:46:38;;;;;;;4.57;2.57;;;;;;;;;;5036552;28;20493;-83
2021/12/25 15:49:06;;;;;;;4.70;2.43;;;;;;;;;;5038108;28;20525;-83